Time,TemperatureF,DewpointF,PressureIn,WindDirection,WindDirectionDegrees,WindSpeedMPH,WindSpeedGustMPH,Humidity,HourlyPrecipIn,Conditions,Clouds,dailyrainin,SolarRadiationWatts/m^2,SoftwareType,DateUTC
2013-04-17 00:00:00,58.3,55.7,30.15,SSW,194,0.0,0.0,91,0.00,,,0.00,0.00,VWS V14.01,2013-04-17 04:00:00,
2013-04-17 00:05:00,58.3,55.7,30.15,SSW,194,0.0,0.0,91,0.00,,,0.00,0.00,VWS V14.01,2013-04-17 04:05:00,
2013-04-17 00:10:00,58.3,55.7,30.15,SSW,194,0.0,0.0,91,0.00,,,0.00,0.00,VWS V14.01,2013-04-17 04:10:00,
2013-04-17 00:15:00,58.1,55.5,30.15,SSW,194,0.0,0.0,91,0.00,,,0.00,0.00,VWS V14.01,2013-04-17 04:15:00,
2013-04-17 00:20:00,58.0,55.4,30.15,SSW,194,0.0,0.0,91,0.00,,,0.00,0.00,VWS V14.01,2013-04-17 04:20:00,
2013-04-17 00:25:00,57.8,55.2,30.15,SSW,194,0.0,0.0,91,0.00,,,0.00,0.00,VWS V14.01,2013-04-17 04:25:00,
2013-04-17 00:30:00,57.6,55.3,30.14,SSW,194,0.0,0.0,92,0.00,,,0.00,0.00,VWS V14.01,2013-04-17 04:30:00,
2013-04-17 00:35:00,57.6,55.3,30.14,SSW,194,0.0,0.0,92,0.00,,,0.00,0.00,VWS V14.01,2013-04-17 04:35:00,
2013-04-17 00:40:00,57.6,55.3,30.14,SSW,194,0.0,0.0,92,0.00,,,0.00,0.00,VWS V14.01,2013-04-17 04:40:00,
2013-04-17 00:45:00,57.5,55.2,30.14,SSW,194,0.0,0.0,92,0.00,,,0.00,0.00,VWS V14.01,2013-04-17 04:45:00,
2013-04-17 00:50:00,57.5,55.2,30.14,SSW,194,0.0,0.0,92,0.00,,,0.00,0.00,VWS V14.01,2013-04-17 04:50:00,
2013-04-17 00:55:00,57.3,55.0,30.14,SSW,194,0.0,0.0,92,0.00,,,0.00,0.00,VWS V14.01,2013-04-17 04:55:00,
2013-04-17 01:00:00,57.5,55.2,30.13,SSW,194,0.0,0.0,92,0.00,,,0.00,0.00,VWS V14.01,2013-04-17 05:00:00,
2013-04-17 01:05:00,57.5,55.5,30.13,SSW,194,0.0,0.0,93,0.00,,,0.00,0.00,VWS V14.01,2013-04-17 05:05:00,
2013-04-17 01:10:00,57.6,55.6,30.13,SSW,194,0.0,0.0,93,0.00,,,0.00,0.00,VWS V14.01,2013-04-17 05:10:00,
2013-04-17 01:15:00,57.6,55.6,30.14,SSW,194,0.0,0.0,93,0.00,,,0.00,0.00,VWS V14.01,2013-04-17 05:15:00,
2013-04-17 01:20:00,57.6,55.6,30.14,SSW,194,0.0,0.0,93,0.00,,,0.00,0.00,VWS V14.01,2013-04-17 05:20:00,
2013-04-17 01:25:00,58.0,56.0,30.14,SSW,194,0.0,0.0,93,0.00,,,0.00,0.00,VWS V14.01,2013-04-17 05:25:00,
2013-04-17 01:30:00,58.0,56.0,30.14,SSW,194,0.0,0.0,93,0.00,,,0.00,0.00,VWS V14.01,2013-04-17 05:30:00,
2013-04-17 01:35:00,58.0,56.0,30.14,SSW,194,0.0,0.0,93,0.00,,,0.00,0.00,VWS V14.01,2013-04-17 05:35:00,
2013-04-17 01:40:00,58.0,56.0,30.14,SSW,194,0.0,0.0,93,0.00,,,0.00,0.00,VWS V14.01,2013-04-17 05:40:00,
2013-04-17 01:45:00,57.8,55.8,30.14,SSW,194,0.0,0.0,93,0.00,,,0.00,0.00,VWS V14.01,2013-04-17 05:45:00,
2013-04-17 01:50:00,57.6,55.6,30.14,SSW,194,0.0,0.0,93,0.00,,,0.00,0.00,VWS V14.01,2013-04-17 05:50:00,
2013-04-17 01:55:00,57.5,55.5,30.14,SSW,194,0.0,0.0,93,0.00,,,0.00,0.00,VWS V14.01,2013-04-17 05:55:00,
2013-04-17 02:00:00,57.3,55.3,30.14,SSW,194,0.0,0.0,93,0.00,,,0.00,0.00,VWS V14.01,2013-04-17 06:00:00,
2013-04-17 02:05:00,57.2,55.2,30.14,SSW,194,0.0,0.0,93,0.00,,,0.00,0.00,VWS V14.01,2013-04-17 06:05:00,
2013-04-17 02:10:00,57.0,55.0,30.14,SSW,194,0.0,0.0,93,0.00,,,0.00,0.00,VWS V14.01,2013-04-17 06:10:00,
2013-04-17 02:15:00,56.9,54.9,30.14,SSW,194,0.0,0.0,93,0.00,,,0.00,0.00,VWS V14.01,2013-04-17 06:15:00,
2013-04-17 02:20:00,56.9,54.9,30.13,SSW,194,0.0,0.0,93,0.00,,,0.00,0.00,VWS V14.01,2013-04-17 06:20:00,
2013-04-17 02:25:00,56.9,54.9,30.13,SSW,194,0.0,0.0,93,0.00,,,0.00,0.00,VWS V14.01,2013-04-17 06:25:00,
2013-04-17 02:30:00,56.9,54.9,30.13,SSW,194,0.0,0.0,93,0.00,,,0.00,0.00,VWS V14.01,2013-04-17 06:30:00,
2013-04-17 02:34:00,56.7,54.7,30.13,SSW,194,0.0,0.0,93,0.00,,,0.00,0.00,VWS V14.01,2013-04-17 06:34:00,
2013-04-17 02:39:00,56.6,54.6,30.13,SSW,194,0.0,0.0,93,0.00,,,0.00,0.00,VWS V14.01,2013-04-17 06:39:00,
2013-04-17 02:44:00,56.3,54.3,30.13,SSW,194,0.0,0.0,93,0.00,,,0.00,0.00,VWS V14.01,2013-04-17 06:44:00,
2013-04-17 02:49:00,56.2,54.2,30.13,SSW,194,0.0,0.0,93,0.00,,,0.00,0.00,VWS V14.01,2013-04-17 06:49:00,
2013-04-17 02:54:00,56.0,54.0,30.13,SSW,194,0.0,0.0,93,0.00,,,0.00,0.00,VWS V14.01,2013-04-17 06:54:00,
2013-04-17 02:59:00,55.9,53.9,30.13,SSW,194,0.0,0.0,93,0.00,,,0.00,0.00,VWS V14.01,2013-04-17 06:59:00,
2013-04-17 03:04:00,55.7,53.7,30.12,SSW,194,0.0,0.0,93,0.00,,,0.00,0.00,VWS V14.01,2013-04-17 07:04:00,
2013-04-17 03:09:00,55.7,53.7,30.12,SSW,194,0.0,0.0,93,0.00,,,0.00,0.00,VWS V14.01,2013-04-17 07:09:00,
2013-04-17 03:14:00,55.7,53.7,30.12,SSW,194,0.0,0.0,93,0.00,,,0.00,0.00,VWS V14.01,2013-04-17 07:14:00,
2013-04-17 03:19:00,55.9,54.2,30.12,SSW,194,0.0,0.0,94,0.00,,,0.00,0.00,VWS V14.01,2013-04-17 07:19:00,
2013-04-17 03:24:00,55.9,54.2,30.12,SSW,194,0.0,0.0,94,0.00,,,0.00,0.00,VWS V14.01,2013-04-17 07:24:00,
2013-04-17 03:29:00,55.7,54.0,30.12,SSW,194,0.0,0.0,94,0.00,,,0.00,0.00,VWS V14.01,2013-04-17 07:29:00,
2013-04-17 03:34:00,55.7,54.0,30.11,SSW,194,0.0,0.0,94,0.00,,,0.00,0.00,VWS V14.01,2013-04-17 07:34:00,
2013-04-17 03:39:00,55.7,54.0,30.11,SSW,194,0.0,0.0,94,0.00,,,0.00,0.00,VWS V14.01,2013-04-17 07:39:00,
2013-04-17 03:44:00,55.6,53.9,30.11,SSW,194,0.0,0.0,94,0.00,,,0.00,0.00,VWS V14.01,2013-04-17 07:44:00,
2013-04-17 03:49:00,55.7,54.0,30.11,SSW,194,0.0,0.0,94,0.00,,,0.00,0.00,VWS V14.01,2013-04-17 07:49:00,
2013-04-17 03:54:00,55.9,54.2,30.11,SSW,194,0.0,0.0,94,0.00,,,0.00,0.00,VWS V14.01,2013-04-17 07:54:00,
2013-04-17 03:59:00,55.7,54.0,30.11,SSW,194,0.0,0.0,94,0.00,,,0.00,0.00,VWS V14.01,2013-04-17 07:59:00,
2013-04-17 04:04:00,55.6,53.9,30.11,SSW,194,0.0,0.0,94,0.00,,,0.00,0.00,VWS V14.01,2013-04-17 08:04:00,
2013-04-17 04:09:00,55.6,53.9,30.11,SSW,194,0.0,0.0,94,0.00,,,0.00,0.00,VWS V14.01,2013-04-17 08:09:00,
2013-04-17 04:14:00,55.3,53.6,30.11,SSW,194,0.0,0.0,94,0.00,,,0.00,0.00,VWS V14.01,2013-04-17 08:14:00,
2013-04-17 04:19:00,55.3,53.6,30.11,SSW,194,0.0,0.0,94,0.00,,,0.00,0.00,VWS V14.01,2013-04-17 08:19:00,
2013-04-17 04:24:00,55.1,53.4,30.11,SSW,194,0.0,0.0,94,0.00,,,0.00,0.00,VWS V14.01,2013-04-17 08:24:00,
2013-04-17 04:29:00,55.1,53.4,30.11,SSW,194,0.0,0.0,94,0.00,,,0.00,0.00,VWS V14.01,2013-04-17 08:29:00,
2013-04-17 04:34:00,55.0,53.3,30.11,SSW,194,0.0,0.0,94,0.00,,,0.00,0.00,VWS V14.01,2013-04-17 08:34:00,
2013-04-17 04:39:00,54.8,53.1,30.11,SSW,194,0.0,0.0,94,0.00,,,0.00,0.00,VWS V14.01,2013-04-17 08:39:00,
2013-04-17 04:44:00,54.7,53.0,30.11,SSW,194,0.0,0.0,94,0.00,,,0.00,0.00,VWS V14.01,2013-04-17 08:44:00,
2013-04-17 04:49:00,54.5,52.8,30.11,SSW,194,0.0,0.0,94,0.00,,,0.00,0.00,VWS V14.01,2013-04-17 08:49:00,
2013-04-17 04:54:00,54.4,52.7,30.11,SSW,194,0.0,0.0,94,0.00,,,0.00,0.00,VWS V14.01,2013-04-17 08:54:00,
2013-04-17 04:59:00,54.4,52.7,30.11,SSW,194,0.0,0.0,94,0.00,,,0.00,0.00,VWS V14.01,2013-04-17 08:59:00,
2013-04-17 05:04:00,54.2,52.5,30.11,SSW,194,0.0,0.0,94,0.00,,,0.00,0.00,VWS V14.01,2013-04-17 09:04:00,
2013-04-17 05:09:00,54.1,52.4,30.11,SSW,194,0.0,0.0,94,0.00,,,0.00,0.00,VWS V14.01,2013-04-17 09:09:00,
2013-04-17 05:14:00,53.9,52.2,30.11,SSW,194,0.0,0.0,94,0.00,,,0.00,0.00,VWS V14.01,2013-04-17 09:14:00,
2013-04-17 05:19:00,53.9,52.2,30.11,SSW,194,0.0,0.0,94,0.00,,,0.00,0.00,VWS V14.01,2013-04-17 09:19:00,
2013-04-17 05:24:00,53.8,52.1,30.11,SSW,194,0.0,0.0,94,0.00,,,0.00,0.00,VWS V14.01,2013-04-17 09:24:00,
2013-04-17 05:29:00,53.8,52.1,30.11,SSW,194,0.0,0.0,94,0.00,,,0.00,0.00,VWS V14.01,2013-04-17 09:29:00,
2013-04-17 05:34:00,53.9,52.2,30.11,SSW,194,0.0,0.0,94,0.00,,,0.00,0.00,VWS V14.01,2013-04-17 09:34:00,
2013-04-17 05:39:00,53.9,52.2,30.11,SSW,194,0.0,0.0,94,0.00,,,0.00,0.00,VWS V14.01,2013-04-17 09:39:00,
2013-04-17 05:44:00,53.8,52.1,30.11,SSW,194,0.0,0.0,94,0.00,,,0.00,0.00,VWS V14.01,2013-04-17 09:44:00,
2013-04-17 05:49:00,53.8,52.1,30.11,SSW,194,0.0,0.0,94,0.00,,,0.00,0.00,VWS V14.01,2013-04-17 09:49:00,
2013-04-17 05:54:00,53.8,52.1,30.11,SSW,194,0.0,0.0,94,0.00,,,0.00,0.00,VWS V14.01,2013-04-17 09:54:00,
2013-04-17 05:59:00,53.6,51.9,30.11,SSW,194,0.0,0.0,94,0.00,,,0.00,0.00,VWS V14.01,2013-04-17 09:59:00,
2013-04-17 06:04:00,53.6,51.9,30.11,SSW,194,0.0,0.0,94,0.00,,,0.00,0.00,VWS V14.01,2013-04-17 10:04:00,
2013-04-17 06:09:00,53.5,51.8,30.11,SSW,194,0.0,0.0,94,0.00,,,0.00,0.00,VWS V14.01,2013-04-17 10:09:00,
2013-04-17 06:14:00,53.9,52.5,30.11,SSW,194,0.0,0.0,95,0.00,,,0.00,0.00,VWS V14.01,2013-04-17 10:14:00,
2013-04-17 06:19:00,54.1,52.7,30.12,SSW,194,0.0,0.0,95,0.00,,,0.00,0.00,VWS V14.01,2013-04-17 10:19:00,
2013-04-17 06:24:00,53.9,52.5,30.12,SSW,194,0.0,0.0,95,0.00,,,0.00,0.00,VWS V14.01,2013-04-17 10:24:00,
2013-04-17 06:29:00,53.9,52.5,30.12,SSW,194,0.0,0.0,95,0.00,,,0.00,0.00,VWS V14.01,2013-04-17 10:29:00,
2013-04-17 06:34:00,54.1,52.7,30.13,SSW,194,0.0,0.0,95,0.00,,,0.00,0.00,VWS V14.01,2013-04-17 10:34:00,
2013-04-17 06:39:00,53.9,52.5,30.13,SSW,194,0.0,0.0,95,0.00,,,0.00,0.00,VWS V14.01,2013-04-17 10:39:00,
2013-04-17 06:44:00,53.9,52.5,30.13,SSW,194,0.0,0.0,95,0.00,,,0.00,7.00,VWS V14.01,2013-04-17 10:44:00,
2013-04-17 06:49:00,53.8,52.4,30.13,SSW,194,0.0,0.0,95,0.00,,,0.00,16.00,VWS V14.01,2013-04-17 10:49:00,
2013-04-17 06:54:00,53.8,52.4,30.13,SSW,194,0.0,0.0,95,0.00,,,0.00,23.00,VWS V14.01,2013-04-17 10:54:00,
2013-04-17 06:59:00,53.8,52.4,30.13,SSW,194,0.0,0.0,95,0.00,,,0.00,26.00,VWS V14.01,2013-04-17 10:59:00,
2013-04-17 07:04:00,53.9,52.5,30.13,South,176,0.0,0.0,95,0.00,,,0.00,28.00,VWS V14.01,2013-04-17 11:04:00,
2013-04-17 07:09:00,54.1,52.7,30.13,South,176,0.0,0.0,95,0.00,,,0.00,28.00,VWS V14.01,2013-04-17 11:09:00,
2013-04-17 07:14:00,54.4,53.0,30.13,South,176,0.0,0.0,95,0.00,,,0.00,33.00,VWS V14.01,2013-04-17 11:14:00,
2013-04-17 07:19:00,54.7,53.3,30.14,South,176,0.0,0.0,95,0.00,,,0.00,35.00,VWS V14.01,2013-04-17 11:19:00,
2013-04-17 07:24:00,55.0,53.6,30.14,South,176,0.0,0.0,95,0.00,,,0.00,39.00,VWS V14.01,2013-04-17 11:24:00,
2013-04-17 07:29:00,55.3,54.2,30.14,South,176,0.0,0.0,96,0.00,,,0.00,40.00,VWS V14.01,2013-04-17 11:29:00,
2013-04-17 07:34:00,55.9,54.8,30.14,South,176,0.0,0.0,96,0.00,,,0.00,39.00,VWS V14.01,2013-04-17 11:34:00,
2013-04-17 07:39:00,56.5,55.4,30.14,South,176,0.0,0.0,96,0.00,,,0.00,39.00,VWS V14.01,2013-04-17 11:39:00,
2013-04-17 07:44:00,56.9,55.8,30.14,South,176,0.0,0.0,96,0.00,,,0.00,46.00,VWS V14.01,2013-04-17 11:44:00,
2013-04-17 07:49:00,57.2,56.1,30.14,South,176,1.0,1.0,96,0.00,,,0.00,70.00,VWS V14.01,2013-04-17 11:49:00,
2013-04-17 07:54:00,57.5,56.4,30.14,South,176,0.0,0.0,96,0.00,,,0.00,81.00,VWS V14.01,2013-04-17 11:54:00,
2013-04-17 07:59:00,58.0,56.9,30.14,South,176,0.0,0.0,96,0.00,,,0.00,116.00,VWS V14.01,2013-04-17 11:59:00,
2013-04-17 08:04:00,58.6,57.5,30.14,South,176,0.0,0.0,96,0.00,,,0.00,139.00,VWS V14.01,2013-04-17 12:04:00,
2013-04-17 08:09:00,59.2,58.1,30.14,South,176,0.0,0.0,96,0.00,,,0.00,149.00,VWS V14.01,2013-04-17 12:09:00,
2013-04-17 08:14:00,59.6,58.5,30.14,South,176,0.0,0.0,96,0.00,,,0.00,153.00,VWS V14.01,2013-04-17 12:14:00,
2013-04-17 08:19:00,60.2,59.1,30.14,South,176,0.0,0.0,96,0.00,,,0.00,139.00,VWS V14.01,2013-04-17 12:19:00,
2013-04-17 08:24:00,61.0,59.9,30.14,South,176,0.0,0.0,96,0.00,,,0.00,123.00,VWS V14.01,2013-04-17 12:24:00,
2013-04-17 08:29:00,61.5,60.3,30.14,South,176,0.0,0.0,96,0.00,,,0.00,102.00,VWS V14.01,2013-04-17 12:29:00,
2013-04-17 08:34:00,61.8,60.7,30.13,South,176,3.0,3.0,96,0.00,,,0.00,74.00,VWS V14.01,2013-04-17 12:34:00,
2013-04-17 08:39:00,62.1,61.0,30.13,South,176,0.0,0.0,96,0.00,,,0.00,76.00,VWS V14.01,2013-04-17 12:39:00,
2013-04-17 08:44:00,62.4,61.2,30.13,South,176,0.0,0.0,96,0.00,,,0.00,70.00,VWS V14.01,2013-04-17 12:44:00,
2013-04-17 08:49:00,62.7,61.5,30.13,South,176,0.0,0.0,96,0.00,,,0.00,72.00,VWS V14.01,2013-04-17 12:49:00,
2013-04-17 08:54:00,63.2,62.0,30.13,South,176,0.0,1.0,96,0.00,,,0.00,84.00,VWS V14.01,2013-04-17 12:54:00,
2013-04-17 08:59:00,63.9,62.7,30.13,West,262,2.0,6.0,96,0.00,,,0.00,83.00,VWS V14.01,2013-04-17 12:59:00,
2013-04-17 09:04:00,64.5,63.3,30.12,West,262,5.0,5.0,96,0.00,,,0.00,81.00,VWS V14.01,2013-04-17 13:04:00,
2013-04-17 09:09:00,65.2,63.7,30.12,WSW,255,5.0,5.0,95,0.00,,,0.00,109.00,VWS V14.01,2013-04-17 13:09:00,
2013-04-17 09:14:00,65.6,63.8,30.12,SSW,209,1.0,2.0,94,0.00,,,0.00,399.00,VWS V14.01,2013-04-17 13:14:00,
2013-04-17 09:19:00,66.4,63.4,30.11,WSW,247,4.0,5.0,90,0.00,,,0.00,436.00,VWS V14.01,2013-04-17 13:19:00,
2013-04-17 09:24:00,67.8,63.5,30.11,SSW,210,0.0,1.0,86,0.00,,,0.00,482.00,VWS V14.01,2013-04-17 13:24:00,
2013-04-17 09:29:00,68.8,62.7,30.11,WSW,243,0.0,2.0,81,0.00,,,0.00,497.00,VWS V14.01,2013-04-17 13:29:00,
2013-04-17 09:34:00,69.6,62.1,30.11,South,191,5.0,7.0,77,0.00,,,0.00,401.00,VWS V14.01,2013-04-17 13:34:00,
2013-04-17 09:39:00,70.3,62.0,30.11,SW,215,3.0,5.0,75,0.00,,,0.00,478.00,VWS V14.01,2013-04-17 13:39:00,
2013-04-17 09:44:00,70.8,61.7,30.11,WSW,255,0.0,0.0,73,0.00,,,0.00,464.00,VWS V14.01,2013-04-17 13:44:00,
2013-04-17 09:49:00,71.3,61.4,30.11,WSW,245,5.0,5.0,71,0.00,,,0.00,563.00,VWS V14.01,2013-04-17 13:49:00,
2013-04-17 09:54:00,71.8,61.1,30.11,West,266,0.0,0.0,69,0.00,,,0.00,554.00,VWS V14.01,2013-04-17 13:54:00,
2013-04-17 09:59:00,72.7,61.5,30.11,South,187,1.0,5.0,68,0.00,,,0.00,589.00,VWS V14.01,2013-04-17 13:59:00,
2013-04-17 10:04:00,73.2,61.2,30.10,SSW,196,3.0,5.0,66,0.00,,,0.00,591.00,VWS V14.01,2013-04-17 14:04:00,
2013-04-17 10:09:00,73.9,61.0,30.10,South,185,3.0,4.0,64,0.00,,,0.00,522.00,VWS V14.01,2013-04-17 14:09:00,
2013-04-17 10:14:00,74.2,61.2,30.10,SW,220,3.0,4.0,64,0.00,,,0.00,529.00,VWS V14.01,2013-04-17 14:14:00,
2013-04-17 10:19:00,74.4,61.0,30.11,South,184,1.0,5.0,63,0.00,,,0.00,585.00,VWS V14.01,2013-04-17 14:19:00,
2013-04-17 10:24:00,74.9,61.0,30.11,SW,223,4.0,4.0,62,0.00,,,0.00,485.00,VWS V14.01,2013-04-17 14:24:00,
2013-04-17 10:29:00,75.1,61.2,30.11,WSW,246,1.0,6.0,62,0.00,,,0.00,541.00,VWS V14.01,2013-04-17 14:29:00,
2013-04-17 10:34:00,75.3,60.5,30.11,WNW,288,0.0,4.0,60,0.00,,,0.00,580.00,VWS V14.01,2013-04-17 14:34:00,
2013-04-17 10:39:00,75.6,60.8,30.11,SSW,212,0.0,1.0,60,0.00,,,0.00,617.00,VWS V14.01,2013-04-17 14:39:00,
2013-04-17 10:44:00,76.0,60.7,30.11,SSW,193,6.0,10.0,59,0.00,,,0.00,664.00,VWS V14.01,2013-04-17 14:44:00,
2013-04-17 10:49:00,76.5,61.1,30.10,SSE,157,2.0,4.0,59,0.00,,,0.00,742.00,VWS V14.01,2013-04-17 14:49:00,
2013-04-17 10:54:00,76.8,60.4,30.10,SW,218,5.0,6.0,57,0.00,,,0.00,745.00,VWS V14.01,2013-04-17 14:54:00,
2013-04-17 10:59:00,77.4,61.0,30.10,WSW,245,3.0,6.0,57,0.00,,,0.00,737.00,VWS V14.01,2013-04-17 14:59:00,
2013-04-17 11:04:00,77.9,62.0,30.10,South,169,0.0,0.0,58,0.00,,,0.00,752.00,VWS V14.01,2013-04-17 15:04:00,
2013-04-17 11:09:00,78.5,61.5,30.10,West,265,7.0,11.0,56,0.00,,,0.00,770.00,VWS V14.01,2013-04-17 15:09:00,
2013-04-17 11:14:00,78.5,61.0,30.10,WSW,250,9.0,9.0,55,0.00,,,0.00,779.00,VWS V14.01,2013-04-17 15:14:00,
2013-04-17 11:19:00,78.3,60.3,30.11,WSW,254,0.0,0.0,54,0.00,,,0.00,795.00,VWS V14.01,2013-04-17 15:19:00,
2013-04-17 11:24:00,78.5,60.5,30.11,WSW,255,6.0,6.0,54,0.00,,,0.00,796.00,VWS V14.01,2013-04-17 15:24:00,
2013-04-17 11:29:00,78.8,59.7,30.11,WNW,288,5.0,6.0,52,0.00,,,0.00,814.00,VWS V14.01,2013-04-17 15:29:00,
2013-04-17 11:34:00,79.0,60.4,30.10,WSW,246,7.0,7.0,53,0.00,,,0.00,824.00,VWS V14.01,2013-04-17 15:34:00,
2013-04-17 11:39:00,79.4,60.3,30.10,WSW,249,4.0,6.0,52,0.00,,,0.00,846.00,VWS V14.01,2013-04-17 15:39:00,
2013-04-17 11:44:00,79.6,60.4,30.10,SW,234,5.0,5.0,52,0.00,,,0.00,853.00,VWS V14.01,2013-04-17 15:44:00,
2013-04-17 11:49:00,79.6,59.9,30.10,SSW,202,0.0,0.0,51,0.00,,,0.00,854.00,VWS V14.01,2013-04-17 15:49:00,
2013-04-17 11:54:00,79.9,60.7,30.10,NNW,339,0.0,0.0,52,0.00,,,0.00,868.00,VWS V14.01,2013-04-17 15:54:00,
2013-04-17 11:59:00,80.3,61.1,30.10,SW,236,2.0,5.0,52,0.00,,,0.00,863.00,VWS V14.01,2013-04-17 15:59:00,
2013-04-17 12:04:00,80.7,60.9,30.10,West,260,0.0,4.0,51,0.00,,,0.00,868.00,VWS V14.01,2013-04-17 16:04:00,
2013-04-17 12:09:00,80.9,61.1,30.10,SSW,201,4.0,10.0,51,0.00,,,0.00,875.00,VWS V14.01,2013-04-17 16:09:00,
2013-04-17 12:14:00,81.1,61.3,30.10,South,186,5.0,5.0,51,0.00,,,0.00,888.00,VWS V14.01,2013-04-17 16:14:00,
2013-04-17 12:19:00,81.2,60.8,30.09,SSW,205,0.0,5.0,50,0.00,,,0.00,898.00,VWS V14.01,2013-04-17 16:19:00,
2013-04-17 12:24:00,81.4,60.4,30.09,WSW,240,4.0,9.0,49,0.00,,,0.00,907.00,VWS V14.01,2013-04-17 16:24:00,
2013-04-17 12:29:00,81.8,60.2,30.09,South,188,7.0,10.0,48,0.00,,,0.00,916.00,VWS V14.01,2013-04-17 16:29:00,
2013-04-17 12:34:00,81.8,60.8,30.09,South,188,5.0,7.0,49,0.00,,,0.00,902.00,VWS V14.01,2013-04-17 16:34:00,
2013-04-17 12:39:00,82.2,60.6,30.09,WSW,245,0.0,1.0,48,0.00,,,0.00,891.00,VWS V14.01,2013-04-17 16:39:00,
2013-04-17 12:44:00,82.2,61.2,30.09,WSW,247,6.0,9.0,49,0.00,,,0.00,930.00,VWS V14.01,2013-04-17 16:44:00,
2013-04-17 12:49:00,82.4,59.6,30.08,NW,320,0.0,0.0,46,0.00,,,0.00,954.00,VWS V14.01,2013-04-17 16:49:00,
2013-04-17 12:54:00,82.8,61.1,30.08,West,261,3.0,5.0,48,0.00,,,0.00,907.00,VWS V14.01,2013-04-17 16:54:00,
2013-04-17 12:59:00,83.2,60.9,30.08,SSW,195,5.0,6.0,47,0.00,,,0.00,923.00,VWS V14.01,2013-04-17 16:59:00,
2013-04-17 13:04:00,83.2,60.3,30.08,West,266,6.0,7.0,46,0.00,,,0.00,939.00,VWS V14.01,2013-04-17 17:04:00,
2013-04-17 13:09:00,83.6,61.3,30.08,WSW,253,4.0,5.0,47,0.00,,,0.00,956.00,VWS V14.01,2013-04-17 17:09:00,
2013-04-17 13:14:00,83.6,61.3,30.08,West,281,0.0,3.0,47,0.00,,,0.00,937.00,VWS V14.01,2013-04-17 17:14:00,
2013-04-17 13:19:00,83.8,60.8,30.08,SSW,210,1.0,1.0,46,0.00,,,0.00,956.00,VWS V14.01,2013-04-17 17:19:00,
2013-04-17 13:24:00,84.3,62.5,30.08,West,262,0.0,0.0,48,0.00,,,0.00,1025.00,VWS V14.01,2013-04-17 17:24:00,
2013-04-17 13:29:00,84.3,60.7,30.08,SW,229,3.0,8.0,45,0.00,,,0.00,972.00,VWS V14.01,2013-04-17 17:29:00,
2013-04-17 13:34:00,84.0,61.6,30.07,SW,217,4.0,4.0,47,0.00,,,0.00,1014.00,VWS V14.01,2013-04-17 17:34:00,
2013-04-17 13:39:00,84.0,62.2,30.07,WNW,302,5.0,5.0,48,0.00,,,0.00,919.00,VWS V14.01,2013-04-17 17:39:00,
2013-04-17 13:44:00,84.1,61.1,30.07,West,273,10.0,12.0,46,0.00,,,0.00,898.00,VWS V14.01,2013-04-17 17:44:00,
2013-04-17 13:49:00,84.0,61.0,30.07,WNW,283,4.0,4.0,46,0.00,,,0.00,357.00,VWS V14.01,2013-04-17 17:49:00,
2013-04-17 13:54:00,84.1,63.5,30.07,WNW,301,0.0,0.0,50,0.00,,,0.00,824.00,VWS V14.01,2013-04-17 17:54:00,
2013-04-17 13:59:00,84.3,61.3,30.07,West,262,9.0,10.0,46,0.00,,,0.00,640.00,VWS V14.01,2013-04-17 17:59:00,
2013-04-17 14:04:00,84.3,60.7,30.06,WSW,239,1.0,6.0,45,0.00,,,0.00,962.00,VWS V14.01,2013-04-17 18:04:00,
2013-04-17 14:09:00,84.1,60.5,30.06,WSW,238,5.0,5.0,45,0.00,,,0.00,629.00,VWS V14.01,2013-04-17 18:09:00,
2013-04-17 14:14:00,84.1,61.1,30.06,WNW,285,6.0,12.0,46,0.00,,,0.00,722.00,VWS V14.01,2013-04-17 18:14:00,
2013-04-17 14:19:00,84.0,61.0,30.06,SW,236,3.0,7.0,46,0.00,,,0.00,578.00,VWS V14.01,2013-04-17 18:19:00,
2013-04-17 14:24:00,84.0,61.0,30.06,West,261,7.0,10.0,46,0.00,,,0.00,571.00,VWS V14.01,2013-04-17 18:24:00,
2013-04-17 14:29:00,84.0,61.6,30.06,West,278,6.0,6.0,47,0.00,,,0.00,617.00,VWS V14.01,2013-04-17 18:29:00,
2013-04-17 14:34:00,83.8,60.8,30.06,West,279,5.0,5.0,46,0.00,,,0.00,480.00,VWS V14.01,2013-04-17 18:34:00,
2013-04-17 14:39:00,83.8,61.4,30.06,West,276,5.0,6.0,47,0.00,,,0.00,606.00,VWS V14.01,2013-04-17 18:39:00,
2013-04-17 14:44:00,84.0,61.6,30.06,WNW,295,10.0,11.0,47,0.00,,,0.00,1099.00,VWS V14.01,2013-04-17 18:44:00,
2013-04-17 14:49:00,84.3,60.7,30.05,WSW,249,5.0,7.0,45,0.00,,,0.00,911.00,VWS V14.01,2013-04-17 18:49:00,
2013-04-17 14:54:00,84.9,60.6,30.05,West,261,4.0,6.0,44,0.00,,,0.00,696.00,VWS V14.01,2013-04-17 18:54:00,
2013-04-17 14:59:00,84.5,60.2,30.05,WSW,253,3.0,4.0,44,0.00,,,0.00,376.00,VWS V14.01,2013-04-17 18:59:00,
2013-04-17 15:04:00,84.1,61.1,30.05,NW,309,0.0,0.0,46,0.00,,,0.00,410.00,VWS V14.01,2013-04-17 19:04:00,
2013-04-17 15:09:00,83.8,60.2,30.05,WSW,258,0.0,5.0,45,0.00,,,0.00,339.00,VWS V14.01,2013-04-17 19:09:00,
2013-04-17 15:14:00,83.4,60.5,30.05,WSW,238,0.0,0.0,46,0.00,,,0.00,297.00,VWS V14.01,2013-04-17 19:14:00,
2013-04-17 15:19:00,83.0,60.7,30.05,WNW,283,3.0,8.0,47,0.00,,,0.00,299.00,VWS V14.01,2013-04-17 19:19:00,
2013-04-17 15:24:00,82.6,60.3,30.05,WSW,252,4.0,6.0,47,0.00,,,0.00,292.00,VWS V14.01,2013-04-17 19:24:00,
2013-04-17 15:29:00,82.0,59.8,30.05,West,273,0.0,9.0,47,0.00,,,0.00,279.00,VWS V14.01,2013-04-17 19:29:00,
2013-04-17 15:34:00,81.6,60.0,30.05,West,278,6.0,6.0,48,0.00,,,0.00,248.00,VWS V14.01,2013-04-17 19:34:00,
2013-04-17 15:39:00,81.4,59.8,30.05,WSW,237,5.0,9.0,48,0.00,,,0.00,220.00,VWS V14.01,2013-04-17 19:39:00,
2013-04-17 15:44:00,81.2,59.7,30.05,West,271,0.0,4.0,48,0.00,,,0.00,211.00,VWS V14.01,2013-04-17 19:44:00,
2013-04-17 15:49:00,81.1,59.6,30.03,West,261,3.0,7.0,48,0.00,,,0.00,193.00,VWS V14.01,2013-04-17 19:49:00,
2013-04-17 15:54:00,80.9,60.0,30.03,West,269,0.0,0.0,49,0.00,,,0.00,178.00,VWS V14.01,2013-04-17 19:54:00,
2013-04-17 15:59:00,80.7,59.8,30.03,WSW,253,0.0,0.0,49,0.00,,,0.00,167.00,VWS V14.01,2013-04-17 19:59:00,
2013-04-17 16:04:00,80.7,60.3,30.03,WNW,288,0.0,0.0,50,0.00,,,0.00,155.00,VWS V14.01,2013-04-17 20:04:00,
2013-04-17 16:09:00,80.7,59.8,30.03,West,270,0.0,0.0,49,0.00,,,0.00,146.00,VWS V14.01,2013-04-17 20:09:00,
2013-04-17 16:14:00,80.7,60.3,30.03,WSW,252,0.0,5.0,50,0.00,,,0.00,155.00,VWS V14.01,2013-04-17 20:14:00,
2013-04-17 16:19:00,80.5,60.2,30.03,WSW,257,2.0,3.0,50,0.00,,,0.00,176.00,VWS V14.01,2013-04-17 20:19:00,
2013-04-17 16:24:00,80.5,60.2,30.03,West,262,4.0,5.0,50,0.00,,,0.00,209.00,VWS V14.01,2013-04-17 20:24:00,
2013-04-17 16:29:00,80.5,60.2,30.03,West,268,3.0,4.0,50,0.00,,,0.00,241.00,VWS V14.01,2013-04-17 20:29:00,
2013-04-17 16:34:00,80.5,60.2,30.03,West,266,0.0,4.0,50,0.00,,,0.00,251.00,VWS V14.01,2013-04-17 20:34:00,
2013-04-17 16:39:00,80.7,60.3,30.03,West,262,2.0,5.0,50,0.00,,,0.00,246.00,VWS V14.01,2013-04-17 20:39:00,
2013-04-17 16:44:00,80.7,60.3,30.03,WSW,254,0.0,0.0,50,0.00,,,0.00,234.00,VWS V14.01,2013-04-17 20:44:00,
2013-04-17 16:49:00,80.9,60.5,30.02,NW,308,1.0,5.0,50,0.00,,,0.00,234.00,VWS V14.01,2013-04-17 20:49:00,
2013-04-17 16:54:00,81.1,60.7,30.02,West,268,0.0,1.0,50,0.00,,,0.00,232.00,VWS V14.01,2013-04-17 20:54:00,
2013-04-17 16:59:00,81.2,59.7,30.02,WNW,293,4.0,5.0,48,0.00,,,0.00,202.00,VWS V14.01,2013-04-17 20:59:00,
2013-04-17 17:04:00,81.2,60.2,30.02,WNW,293,0.0,0.0,49,0.00,,,0.00,192.00,VWS V14.01,2013-04-17 21:04:00,
2013-04-17 17:09:00,81.4,61.5,30.02,SSE,152,1.0,2.0,51,0.00,,,0.00,209.00,VWS V14.01,2013-04-17 21:09:00,
2013-04-17 17:14:00,81.4,61.0,30.02,SE,141,3.0,3.0,50,0.00,,,0.00,172.00,VWS V14.01,2013-04-17 21:14:00,
2013-04-17 17:19:00,81.4,59.8,30.01,SSE,147,0.0,0.0,48,0.00,,,0.00,158.00,VWS V14.01,2013-04-17 21:19:00,
2013-04-17 17:24:00,81.4,60.4,30.01,SSW,213,0.0,0.0,49,0.00,,,0.00,162.00,VWS V14.01,2013-04-17 21:24:00,
2013-04-17 17:29:00,81.6,60.6,30.01,SSW,213,0.0,1.0,49,0.00,,,0.00,167.00,VWS V14.01,2013-04-17 21:29:00,
2013-04-17 17:34:00,81.6,60.6,30.02,SSW,213,0.0,0.0,49,0.00,,,0.00,162.00,VWS V14.01,2013-04-17 21:34:00,
2013-04-17 17:39:00,81.6,61.2,30.02,SSE,161,0.0,0.0,50,0.00,,,0.00,160.00,VWS V14.01,2013-04-17 21:39:00,
2013-04-17 17:44:00,81.6,61.7,30.02,SSE,161,0.0,0.0,51,0.00,,,0.00,149.00,VWS V14.01,2013-04-17 21:44:00,
2013-04-17 17:50:00,81.4,61.5,30.02,SSE,161,0.0,0.0,51,0.00,,,0.00,149.00,VWS V14.01,2013-04-17 21:50:00,
2013-04-17 17:55:00,81.2,61.9,30.02,SE,132,4.0,4.0,52,0.00,,,0.00,142.00,VWS V14.01,2013-04-17 21:55:00,